Time;durP1;ratioP1;P1;durP2;ratioP2;P2;SDS_P1;SDS_P2;PMS_P1;PMS_P2;Temp;Humidity;BMP_temperature;BMP_pressure;BME280_temperature;BME280_humidity;BME280_pressure;Samples;Min_cycle;Max_cycle;Signal;HPM_P1;HPM_P2
2022/06/04 00:02:14;;;;;;;2.17;2.07;;;16.60;91.00;;;;;;5163903;28;20185;-54
2022/06/04 00:04:45;;;;;;;2.87;2.77;;;16.60;91.80;;;;;;5163366;28;20270;-53
2022/06/04 00:07:16;;;;;;;3.53;3.30;;;16.60;92.70;;;;;;5160965;28;20575;-53
2022/06/04 00:15:29;;;;;;;2.80;2.70;;;16.60;92.90;;;;;;5154146;28;20209;-53
2022/06/04 00:15:33;;;;;;;3.17;2.50;;;16.70;93.60;;;;;;5159866;28;20797;-53
2022/06/04 00:18:03;;;;;;;2.80;2.50;;;16.70;93.60;;;;;;5180242;28;20991;-53
2022/06/04 00:20:34;;;;;;;3.60;3.30;;;16.70;93.80;;;;;;5163025;28;20447;-54
2022/06/04 00:23:07;;;;;;;6.80;2.60;;;16.70;94.20;;;;;;5158070;28;20197;-54
2022/06/04 00:25:42;;;;;;;5.53;2.50;;;16.80;94.50;;;;;;5157832;28;20566;-55
2022/06/04 00:28:14;;;;;;;3.20;2.90;;;16.70;94.70;;;;;;5163564;28;20435;-54
2022/06/04 00:30:46;;;;;;;2.97;2.53;;;16.80;95.00;;;;;;5164565;28;20472;-54
2022/06/04 00:33:17;;;;;;;3.00;2.80;;;16.70;95.20;;;;;;5163651;28;20420;-54
2022/06/04 00:35:51;;;;;;;4.13;2.90;;;16.80;95.40;;;;;;5152031;28;20979;-55
2022/06/04 00:38:25;;;;;;;2.80;2.70;;;16.80;95.50;;;;;;5162939;28;20875;-54
2022/06/04 00:40:55;;;;;;;4.60;3.60;;;16.80;95.60;;;;;;5163261;28;20530;-57
2022/06/04 00:43:26;;;;;;;4.63;2.63;;;16.70;96.00;;;;;;5161334;28;21082;-53
2022/06/04 00:46:34;;;;;;;8.93;3.37;;;16.70;96.20;;;;;;5157536;28;20580;-54
2022/06/04 00:49:05;;;;;;;2.80;2.43;;;16.70;96.40;;;;;;5152598;28;20206;-54
2022/06/04 00:51:37;;;;;;;3.27;2.70;;;16.70;96.50;;;;;;5150099;28;20447;-54
2022/06/04 00:54:09;;;;;;;4.43;2.93;;;16.70;96.60;;;;;;5163679;28;20424;-51
2022/06/04 00:57:17;;;;;;;3.17;2.87;;;16.70;96.70;;;;;;5184838;28;20948;-54
2022/06/04 01:00:08;;;;;;;4.17;3.07;;;16.70;96.90;;;;;;5200691;28;20468;-55
2022/06/04 01:02:51;;;;;;;4.20;2.50;;;16.60;97.50;;;;;;5168643;28;20436;-54
2022/06/04 01:05:47;;;;;;;2.47;2.37;;;16.60;97.70;;;;;;5161041;28;20448;-53
2022/06/04 01:08:24;;;;;;;2.53;2.33;;;16.60;98.00;;;;;;5167329;28;20440;-54
2022/06/04 01:11:02;;;;;;;3.07;2.83;;;16.70;97.90;;;;;;5162264;28;20865;-53
2022/06/04 01:14:11;;;;;;;5.90;2.40;;;16.60;98.20;;;;;;5159062;28;20439;-53
2022/06/04 01:16:58;;;;;;;2.80;2.60;;;16.60;98.50;;;;;;5154153;28;20452;-53
2022/06/04 01:19:59;;;;;;;3.30;3.00;;;16.50;98.90;;;;;;5165869;28;21011;-54
2022/06/04 01:22:55;;;;;;;5.03;3.33;;;16.50;99.20;;;;;;5167261;28;20518;-53
2022/06/04 01:25:40;;;;;;;2.80;2.47;;;16.50;99.50;;;;;;5165039;28;20464;-53
2022/06/04 01:28:16;;;;;;;2.13;2.10;;;16.40;99.90;;;;;;5160271;28;20448;-53
2022/06/04 01:30:52;;;;;;;2.90;2.70;;;16.40;99.90;;;;;;5161597;28;20847;-53
2022/06/04 01:33:39;;;;;;;2.63;2.53;;;16.40;99.90;;;;;;5160556;28;20970;-53
2022/06/04 01:36:32;;;;;;;3.83;3.13;;;16.40;99.90;;;;;;5166745;28;20451;-49
2022/06/04 01:39:08;;;;;;;2.37;2.13;;;16.40;99.90;;;;;;5171144;28;20511;-53
2022/06/04 01:41:47;;;;;;;2.37;2.27;;;16.40;99.90;;;;;;5161806;28;20899;-54
2022/06/04 01:44:32;;;;;;;7.60;3.07;;;16.40;99.90;;;;;;5161010;28;20812;-53
2022/06/04 01:47:04;;;;;;;2.60;2.40;;;16.40;99.90;;;;;;5156498;28;20530;-53
2022/06/04 01:49:49;;;;;;;2.60;2.50;;;16.30;99.90;;;;;;5160365;28;20539;-54
2022/06/04 01:52:34;;;;;;;3.23;2.93;;;16.30;99.90;;;;;;5164264;28;20538;-53
2022/06/04 01:55:14;;;;;;;2.63;2.33;;;16.30;99.90;;;;;;5163608;28;20453;-53
2022/06/04 01:57:58;;;;;;;5.73;2.90;;;16.30;99.90;;;;;;5154675;28;20496;-55
2022/06/04 02:00:36;;;;;;;3.10;2.80;;;16.30;99.90;;;;;;5163827;28;20432;-53
2022/06/04 02:03:32;;;;;;;4.50;2.97;;;16.30;99.90;;;;;;5162556;28;20769;-53
2022/06/04 02:06:11;;;;;;;7.83;2.80;;;16.30;99.90;;;;;;5165783;28;20523;-53
2022/06/04 02:09:04;;;;;;;2.37;2.20;;;16.30;99.90;;;;;;5162333;28;20443;-53
2022/06/04 02:11:36;;;;;;;2.43;2.33;;;16.30;99.90;;;;;;5166206;28;20841;-53
2022/06/04 02:14:08;;;;;;;2.40;2.30;;;16.30;99.90;;;;;;5161098;28;20461;-52
2022/06/04 02:16:54;;;;;;;2.53;2.33;;;16.20;99.90;;;;;;5187099;28;20456;-53
2022/06/04 02:19:25;;;;;;;2.60;2.50;;;16.20;99.90;;;;;;5164011;28;20476;-53
2022/06/04 02:21:55;;;;;;;2.60;2.50;;;16.10;99.90;;;;;;5165682;28;20494;-53
2022/06/04 02:24:27;;;;;;;4.93;2.63;;;16.20;99.90;;;;;;5166095;28;20200;-52
2022/06/04 02:26:57;;;;;;;2.50;2.30;;;16.10;99.90;;;;;;5157383;28;20216;-51
2022/06/04 02:29:28;;;;;;;9.43;2.80;;;16.20;99.90;;;;;;5167052;28;20464;-53
2022/06/04 02:32:05;;;;;;;2.50;2.40;;;16.10;99.90;;;;;;5161219;28;20181;-53
2022/06/04 02:34:57;;;;;;;2.53;2.13;;;16.10;99.90;;;;;;5160407;28;20539;-52
2022/06/04 02:37:47;;;;;;;5.20;2.60;;;16.10;99.90;;;;;;5192357;28;20457;-51
2022/06/04 02:40:24;;;;;;;2.67;2.07;;;16.10;99.90;;;;;;5155500;28;20437;-54
2022/06/04 02:42:57;;;;;;;5.90;2.33;;;16.00;99.90;;;;;;5159956;28;20452;-53
2022/06/04 02:45:33;;;;;;;2.37;2.27;;;16.00;99.90;;;;;;5165002;28;20416;-52
2022/06/04 02:48:18;;;;;;;2.90;2.43;;;16.00;99.90;;;;;;5162530;28;20463;-52
2022/06/04 02:50:55;;;;;;;6.40;2.37;;;16.00;99.90;;;;;;5163898;28;20897;-50
2022/06/04 02:53:29;;;;;;;2.30;2.10;;;16.00;99.90;;;;;;5160714;28;20526;-53
2022/06/04 02:56:06;;;;;;;5.93;2.60;;;15.90;99.90;;;;;;5160082;28;20482;-53
2022/06/04 02:58:39;;;;;;;2.67;2.47;;;15.90;99.90;;;;;;5157780;28;20941;-53
2022/06/04 03:01:11;;;;;;;2.20;2.10;;;15.80;99.90;;;;;;5161400;28;20451;-53
2022/06/04 03:03:43;;;;;;;7.93;2.20;;;15.80;99.90;;;;;;5158660;28;20773;-53
2022/06/04 03:06:24;;;;;;;2.60;2.30;;;15.80;99.90;;;;;;5165731;28;20920;-52
2022/06/04 03:08:55;;;;;;;2.77;2.60;;;15.80;99.90;;;;;;5160393;28;20436;-53
2022/06/04 03:11:26;;;;;;;3.00;2.10;;;15.80;99.80;;;;;;5165771;28;20811;-52
2022/06/04 03:13:57;;;;;;;3.07;2.10;;;15.80;99.90;;;;;;5152851;28;20190;-47
2022/06/04 03:16:38;;;;;;;1.70;1.70;;;15.70;99.90;;;;;;5157387;28;20504;-48
2022/06/04 03:19:09;;;;;;;2.70;2.60;;;15.70;99.90;;;;;;5191753;28;20447;-52
2022/06/04 03:21:41;;;;;;;2.67;1.93;;;15.70;99.90;;;;;;5160768;28;20416;-51
2022/06/04 03:24:14;;;;;;;1.90;1.87;;;15.60;99.80;;;;;;5153360;28;20473;-53
2022/06/04 03:26:44;;;;;;;2.10;1.97;;;15.60;99.50;;;;;;5196532;28;20464;-53
2022/06/04 03:29:15;;;;;;;2.30;2.20;;;15.60;99.40;;;;;;5153224;28;20467;-52
2022/06/04 03:31:46;;;;;;;6.03;2.27;;;15.60;99.40;;;;;;5151541;28;20276;-53
2022/06/04 03:34:17;;;;;;;2.43;2.23;;;15.60;99.30;;;;;;5180717;28;20181;-51
2022/06/04 03:36:47;;;;;;;2.07;1.80;;;15.60;99.10;;;;;;5163641;28;21098;-52
2022/06/04 03:39:18;;;;;;;2.93;2.37;;;15.60;99.00;;;;;;5198914;28;20189;-54
2022/06/04 03:41:48;;;;;;;1.93;1.83;;;15.70;98.70;;;;;;5163121;28;20185;-46
2022/06/04 03:44:19;;;;;;;2.17;2.00;;;15.70;98.70;;;;;;5161809;28;20189;-47
2022/06/04 03:46:49;;;;;;;2.27;2.17;;;15.70;98.30;;;;;;5161672;28;20216;-48
2022/06/04 03:49:20;;;;;;;3.73;2.00;;;15.70;98.00;;;;;;5150988;28;20719;-47
2022/06/04 03:51:51;;;;;;;2.97;2.30;;;15.70;97.80;;;;;;5180484;28;20188;-47
2022/06/04 03:54:52;;;;;;;4.10;2.53;;;15.70;97.70;;;;;;5190082;28;20271;-47
2022/06/04 04:00:02;;;;;;;3.33;2.13;;;15.70;97.50;;;;;;5161975;28;20413;-47
2022/06/04 04:02:34;;;;;;;4.40;2.10;;;15.80;96.70;;;;;;5147905;28;20517;-47
2022/06/04 04:05:06;;;;;;;5.13;1.80;;;15.90;96.30;;;;;;5156785;28;20492;-49
2022/06/04 04:07:37;;;;;;;2.63;2.37;;;15.90;95.80;;;;;;5160101;28;20989;-47
2022/06/04 04:10:09;;;;;;;2.20;2.00;;;15.90;95.40;;;;;;5159798;28;20488;-48
2022/06/04 04:12:40;;;;;;;2.90;2.80;;;15.90;95.40;;;;;;5151711;28;20418;-50
2022/06/04 04:15:12;;;;;;;3.60;2.30;;;15.90;95.30;;;;;;5160010;28;20423;-49
2022/06/04 04:17:43;;;;;;;2.13;2.13;;;16.00;94.80;;;;;;5179753;28;20197;-50
2022/06/04 04:20:18;;;;;;;5.43;2.60;;;16.10;94.20;;;;;;5181447;28;20822;-49
2022/06/04 04:22:49;;;;;;;8.40;2.00;;;16.20;93.90;;;;;;5178030;28;20527;-49
2022/06/04 04:25:24;;;;;;;2.80;1.93;;;16.30;93.00;;;;;;5163369;28;20432;-53
2022/06/04 04:27:55;;;;;;;1.50;1.50;;;16.50;92.30;;;;;;5163994;28;20562;-54
2022/06/04 04:30:29;;;;;;;2.13;2.03;;;16.50;91.00;;;;;;5198259;28;20551;-53
2022/06/04 04:33:00;;;;;;;2.47;2.37;;;16.40;90.80;;;;;;5159403;28;20468;-52
2022/06/04 04:35:33;;;;;;;2.57;2.03;;;16.40;90.60;;;;;;5193977;28;20439;-53
2022/06/04 04:38:05;;;;;;;2.00;1.93;;;16.40;90.60;;;;;;5163073;28;20451;-49
2022/06/04 04:40:35;;;;;;;2.20;1.87;;;16.40;90.10;;;;;;5162052;28;20440;-50
2022/06/04 04:43:06;;;;;;;5.20;2.07;;;16.30;90.10;;;;;;5197542;28;20444;-49
2022/06/04 04:45:37;;;;;;;2.67;2.47;;;16.40;90.00;;;;;;5169681;28;20188;-50
2022/06/04 04:48:07;;;;;;;4.27;2.50;;;16.40;89.00;;;;;;5168276;28;20541;-50
2022/06/04 04:50:41;;;;;;;4.10;2.27;;;16.30;89.20;;;;;;5166404;28;20248;-51
2022/06/04 04:53:12;;;;;;;2.40;2.20;;;16.30;89.00;;;;;;5148062;28;20545;-47
2022/06/04 04:55:46;;;;;;;1.77;1.60;;;16.20;88.50;;;;;;5196060;28;20439;-47
2022/06/04 04:58:17;;;;;;;3.03;2.00;;;16.30;88.80;;;;;;5198136;28;20437;-47
2022/06/04 05:00:47;;;;;;;2.57;2.37;;;16.30;88.70;;;;;;5163738;28;20427;-50
2022/06/04 05:03:18;;;;;;;2.90;2.40;;;16.40;88.20;;;;;;5162519;28;20203;-50
2022/06/04 05:06:06;;;;;;;2.07;1.97;;;16.50;87.20;;;;;;5159100;28;20280;-49
2022/06/04 05:08:37;;;;;;;2.37;1.70;;;16.60;86.80;;;;;;5188196;28;20661;-49
2022/06/04 05:11:14;;;;;;;3.43;2.00;;;16.80;86.00;;;;;;5158082;28;20472;-50
2022/06/04 05:13:49;;;;;;;6.67;2.33;;;17.00;84.60;;;;;;5150909;28;20263;-49
2022/06/04 05:16:22;;;;;;;1.77;1.67;;;17.30;81.00;;;;;;5164235;28;20511;-49
2022/06/04 05:18:52;;;;;;;2.20;1.50;;;17.60;78.90;;;;;;5160000;28;20419;-50
2022/06/04 05:21:44;;;;;;;2.70;1.93;;;18.00;75.80;;;;;;5199333;28;21004;-48
2022/06/04 05:24:21;;;;;;;6.23;1.90;;;18.20;73.70;;;;;;5159181;28;20203;-49
2022/06/04 05:26:53;;;;;;;16.77;2.23;;;18.30;72.00;;;;;;5157280;28;20454;-49
2022/06/04 05:29:24;;;;;;;2.10;2.00;;;18.80;71.70;;;;;;5168274;28;20455;-49
2022/06/04 05:31:56;;;;;;;2.40;2.30;;;20.10;64.80;;;;;;5160754;28;20836;-48
2022/06/04 05:34:26;;;;;;;1.80;1.70;;;20.90;58.40;;;;;;5159899;28;20228;-49
2022/06/04 05:36:58;;;;;;;2.10;1.60;;;20.60;57.20;;;;;;5166249;28;20431;-50
2022/06/04 05:39:31;;;;;;;3.23;2.10;;;20.30;57.20;;;;;;5163697;28;20232;-49
2022/06/04 05:42:04;;;;;;;2.70;2.03;;;20.00;57.40;;;;;;5159149;28;20443;-49
2022/06/04 05:44:35;;;;;;;4.03;2.07;;;19.70;57.40;;;;;;5165979;28;20526;-49
2022/06/04 05:47:06;;;;;;;2.17;2.07;;;19.40;59.00;;;;;;5211937;23;20580;-57
2022/06/04 05:49:37;;;;;;;2.03;1.93;;;19.10;59.30;;;;;;5223163;28;20204;-57
2022/06/04 05:52:08;;;;;;;5.20;1.63;;;19.00;60.20;;;;;;5222933;28;20183;-57
2022/06/04 05:54:38;;;;;;;2.23;2.03;;;18.80;60.60;;;;;;5228366;28;20482;-58
2022/06/04 05:57:09;;;;;;;2.07;1.90;;;18.70;61.00;;;;;;5217590;28;20310;-57
2022/06/04 05:59:40;;;;;;;2.47;2.17;;;18.70;61.80;;;;;;5204485;28;20231;-58
2022/06/04 06:02:11;;;;;;;3.33;2.43;;;18.70;61.80;;;;;;5196810;28;20198;-57
2022/06/04 06:04:42;;;;;;;3.70;2.10;;;18.60;61.20;;;;;;5207095;28;20195;-57
2022/06/04 06:07:12;;;;;;;2.10;2.00;;;18.40;62.10;;;;;;5203673;28;20446;-58
2022/06/04 06:09:44;;;;;;;3.93;2.27;;;18.40;62.60;;;;;;5208704;28;20242;-57
2022/06/04 06:12:15;;;;;;;3.00;2.80;;;18.50;63.00;;;;;;5206416;28;20222;-58
2022/06/04 06:14:46;;;;;;;3.27;2.40;;;18.80;62.20;;;;;;5205687;28;20478;-59
2022/06/04 06:17:16;;;;;;;2.47;2.37;;;19.20;59.20;;;;;;5202262;28;20461;-58
2022/06/04 06:19:48;;;;;;;6.37;2.87;;;19.30;57.90;;;;;;5195093;28;20526;-58
2022/06/04 06:22:19;;;;;;;4.00;2.27;;;19.50;57.50;;;;;;5196162;28;20180;-57
2022/06/04 06:24:49;;;;;;;1.90;1.80;;;19.80;56.10;;;;;;5202315;28;20426;-58
2022/06/04 06:27:20;;;;;;;3.67;2.47;;;20.00;55.40;;;;;;5196513;28;20337;-58
2022/06/04 06:29:51;;;;;;;4.77;2.27;;;20.10;55.30;;;;;;5193989;28;20192;-57
2022/06/04 06:32:23;;;;;;;2.33;2.23;;;19.90;54.40;;;;;;5187918;28;20646;-58
2022/06/04 06:34:54;;;;;;;6.20;2.60;;;19.60;55.10;;;;;;5205320;28;20182;-58
2022/06/04 06:37:25;;;;;;;2.43;2.30;;;19.40;55.80;;;;;;5201851;28;20443;-57
2022/06/04 06:39:56;;;;;;;2.53;2.33;;;19.50;55.90;;;;;;5207304;28;20257;-56
2022/06/04 06:42:27;;;;;;;8.03;1.63;;;19.50;55.10;;;;;;5208211;28;20647;-54
2022/06/04 06:44:58;;;;;;;3.70;2.50;;;19.50;54.70;;;;;;5197486;28;20980;-53
2022/06/04 06:47:31;;;;;;;2.30;2.20;;;19.30;54.90;;;;;;5206049;28;20474;-54
2022/06/04 06:50:02;;;;;;;3.30;3.07;;;19.20;55.50;;;;;;5203291;28;20243;-54
2022/06/04 06:52:32;;;;;;;3.10;2.23;;;19.00;55.90;;;;;;5195861;28;20941;-55
2022/06/04 06:55:03;;;;;;;5.67;2.60;;;18.80;55.90;;;;;;5205459;28;20510;-56
2022/06/04 06:57:34;;;;;;;2.57;2.40;;;18.60;56.50;;;;;;5201278;28;20203;-54
2022/06/04 07:00:05;;;;;;;5.17;2.20;;;18.40;56.90;;;;;;5209193;28;20795;-54
2022/06/04 07:02:36;;;;;;;2.50;2.30;;;18.20;57.10;;;;;;5208299;28;20188;-54
2022/06/04 07:05:07;;;;;;;3.03;2.20;;;18.30;57.10;;;;;;5204383;28;20430;-54
2022/06/04 07:07:38;;;;;;;3.47;2.60;;;18.30;56.00;;;;;;5203758;28;20449;-54
2022/06/04 07:10:10;;;;;;;2.83;1.77;;;18.20;56.30;;;;;;5205820;28;20903;-55
2022/06/04 07:12:42;;;;;;;2.30;2.20;;;18.20;56.70;;;;;;5200487;28;20187;-52
2022/06/04 07:15:13;;;;;;;3.03;2.57;;;18.20;56.40;;;;;;5184168;28;20434;-56
2022/06/04 07:17:43;;;;;;;2.20;2.00;;;18.30;56.30;;;;;;5194118;28;20469;-54
2022/06/04 07:20:14;;;;;;;3.73;2.10;;;18.40;56.60;;;;;;5196935;28;20180;-55
2022/06/04 07:22:44;;;;;;;2.10;2.00;;;18.50;56.70;;;;;;5201967;28;20234;-54
2022/06/04 07:25:15;;;;;;;1.87;1.80;;;18.50;56.10;;;;;;5204121;28;20176;-55
2022/06/04 07:27:46;;;;;;;5.33;2.70;;;18.50;56.20;;;;;;5198995;28;20211;-55
2022/06/04 07:30:16;;;;;;;1.60;1.50;;;18.60;55.90;;;;;;5200738;28;20210;-54
2022/06/04 07:32:47;;;;;;;2.30;2.10;;;18.60;56.20;;;;;;5195509;28;20183;-54
2022/06/04 07:35:18;;;;;;;2.07;1.97;;;18.60;56.00;;;;;;5213664;28;20177;-55
2022/06/04 07:37:48;;;;;;;3.47;2.47;;;18.60;56.00;;;;;;5203901;28;20206;-54
2022/06/04 07:40:19;;;;;;;3.60;1.97;;;18.70;55.70;;;;;;5202822;28;20416;-54
2022/06/04 07:42:50;;;;;;;2.70;1.53;;;18.80;55.70;;;;;;5199149;28;20669;-55
2022/06/04 07:45:20;;;;;;;2.43;2.00;;;18.90;55.50;;;;;;5194185;28;20262;-54
2022/06/04 07:47:51;;;;;;;2.10;2.00;;;19.00;55.60;;;;;;5204905;28;20207;-55
2022/06/04 07:50:21;;;;;;;5.13;2.00;;;19.10;55.10;;;;;;5205167;28;20207;-55
2022/06/04 07:52:52;;;;;;;1.80;1.70;;;18.90;55.30;;;;;;5204510;28;20644;-56
2022/06/04 07:55:23;;;;;;;1.93;1.70;;;18.90;55.60;;;;;;5198821;28;20214;-56
2022/06/04 07:57:54;;;;;;;1.50;1.50;;;19.00;55.40;;;;;;5199812;28;20212;-55
2022/06/04 08:00:25;;;;;;;19.87;2.27;;;19.00;55.70;;;;;;5203572;28;20253;-55
2022/06/04 08:02:56;;;;;;;5.67;1.90;;;19.00;55.40;;;;;;5203855;28;20433;-55
2022/06/04 08:05:27;;;;;;;2.30;2.10;;;18.90;55.50;;;;;;5199220;28;20186;-55
2022/06/04 08:07:58;;;;;;;4.90;1.53;;;18.80;55.90;;;;;;5199272;28;20451;-54
2022/06/04 08:10:29;;;;;;;2.00;1.70;;;18.70;56.30;;;;;;5201307;28;20538;-54
2022/06/04 08:13:02;;;;;;;2.50;2.30;;;18.60;56.30;;;;;;5214316;28;20179;-55
2022/06/04 08:15:32;;;;;;;2.70;2.03;;;18.50;56.40;;;;;;5194837;28;20461;-55
2022/06/04 08:18:03;;;;;;;1.97;1.77;;;18.50;56.60;;;;;;5202171;28;20459;-54
2022/06/04 08:20:34;;;;;;;6.57;2.17;;;18.50;56.80;;;;;;5203764;28;20191;-54
2022/06/04 08:23:04;;;;;;;1.93;1.77;;;18.50;56.70;;;;;;5201421;28;20211;-56
2022/06/04 08:25:40;;;;;;;6.53;2.30;;;18.60;57.00;;;;;;5192972;28;20195;-56
2022/06/04 08:28:10;;;;;;;5.40;2.03;;;18.70;56.90;;;;;;5202562;28;20203;-54
2022/06/04 08:30:43;;;;;;;2.10;1.77;;;18.80;56.70;;;;;;5196901;28;20465;-54
2022/06/04 08:33:13;;;;;;;5.40;1.90;;;18.80;56.90;;;;;;5203984;28;20214;-55
2022/06/04 08:35:44;;;;;;;2.07;1.77;;;18.90;56.50;;;;;;5193701;28;20466;-55
2022/06/04 08:38:14;;;;;;;1.43;1.37;;;19.00;56.30;;;;;;5201732;28;20693;-54
2022/06/04 08:40:56;;;;;;;1.47;1.37;;;19.20;56.20;;;;;;5201151;28;20252;-55
2022/06/04 08:43:51;;;;;;;2.93;1.80;;;19.30;55.60;;;;;;5204386;28;20274;-55
2022/06/04 08:46:28;;;;;;;1.70;1.70;;;19.50;55.00;;;;;;5198526;28;20458;-54
2022/06/04 08:49:43;;;;;;;2.80;1.80;;;19.50;54.70;;;;;;5193140;28;20761;-56
2022/06/04 08:52:27;;;;;;;4.03;1.40;;;19.50;54.30;;;;;;5205580;28;20454;-54
2022/06/04 08:58:14;;;;;;;2.30;2.03;;;19.70;54.00;;;;;;5199004;28;20445;-56
2022/06/04 09:01:03;;;;;;;8.90;2.10;;;19.80;53.80;;;;;;5203004;28;20450;-55
2022/06/04 09:03:57;;;;;;;3.07;1.37;;;19.90;53.50;;;;;;5204710;28;20434;-55
2022/06/04 09:07:05;;;;;;;2.60;1.50;;;20.10;53.40;;;;;;5192070;28;20974;-56
2022/06/04 09:10:10;;;;;;;3.10;1.27;;;20.20;52.70;;;;;;5200992;28;20490;-56
2022/06/04 09:12:49;;;;;;;1.67;1.50;;;20.30;53.20;;;;;;5200830;28;20913;-54
2022/06/04 09:15:29;;;;;;;5.47;1.40;;;20.60;52.50;;;;;;5199893;28;20426;-55
2022/06/04 09:18:09;;;;;;;1.40;1.30;;;20.90;51.50;;;;;;5200584;28;20462;-55
2022/06/04 09:20:46;;;;;;;5.10;1.73;;;21.10;51.30;;;;;;5198733;28;20779;-56
2022/06/04 09:23:35;;;;;;;2.83;2.03;;;21.40;51.00;;;;;;5189995;28;20950;-54
2022/06/04 09:26:32;;;;;;;1.57;1.57;;;21.70;50.70;;;;;;5203954;28;20430;-56
2022/06/04 09:29:27;;;;;;;1.63;1.60;;;21.60;49.80;;;;;;5208176;28;20914;-56
2022/06/04 09:32:03;;;;;;;1.67;1.57;;;21.60;50.20;;;;;;5205211;28;20423;-54
2022/06/04 09:34:45;;;;;;;10.60;2.23;;;21.40;50.00;;;;;;5205450;28;20965;-55
2022/06/04 09:37:16;;;;;;;1.87;1.77;;;21.30;50.50;;;;;;5201462;28;20438;-56
2022/06/04 09:39:59;;;;;;;1.53;1.43;;;21.30;50.80;;;;;;5203789;28;21008;-55
2022/06/04 09:42:31;;;;;;;1.40;1.30;;;21.20;50.80;;;;;;5206931;28;20251;-58
2022/06/04 09:45:05;;;;;;;1.63;1.50;;;21.30;51.10;;;;;;5195998;28;20549;-56
2022/06/04 09:47:44;;;;;;;1.80;1.70;;;21.40;51.20;;;;;;5207415;28;20485;-55
2022/06/04 09:50:27;;;;;;;4.37;1.67;;;21.40;51.40;;;;;;5205769;28;20974;-56
2022/06/04 09:53:11;;;;;;;5.87;1.93;;;21.30;50.20;;;;;;5205289;28;20926;-57
2022/06/04 09:55:50;;;;;;;1.87;1.77;;;21.30;49.90;;;;;;5206541;28;20410;-55
2022/06/04 09:58:39;;;;;;;3.17;2.43;;;21.20;50.10;;;;;;5204992;28;20461;-56
2022/06/04 10:01:22;;;;;;;1.87;1.70;;;21.40;50.40;;;;;;5197968;28;20493;-56
2022/06/04 10:04:03;;;;;;;2.70;2.50;;;21.60;49.80;;;;;;5206543;28;20447;-54
2022/06/04 10:06:34;;;;;;;2.60;1.90;;;21.70;49.80;;;;;;5207124;28;20458;-57
2022/06/04 10:12:14;;;;;;;2.17;2.07;;;22.00;49.20;;;;;;5204048;28;20697;-56
2022/06/04 10:14:59;;;;;;;4.90;1.90;;;22.10;48.70;;;;;;5200472;28;20423;-56
2022/06/04 10:17:37;;;;;;;1.73;1.53;;;22.30;49.00;;;;;;5202370;28;20446;-57
2022/06/04 10:20:23;;;;;;;1.90;1.63;;;22.40;48.50;;;;;;5202346;28;20818;-56
2022/06/04 10:22:54;;;;;;;3.37;2.00;;;22.50;48.20;;;;;;5195859;28;20974;-56
2022/06/04 10:25:47;;;;;;;1.47;1.37;;;22.60;47.90;;;;;;5195060;28;20429;-57
2022/06/04 10:28:43;;;;;;;2.97;1.50;;;22.60;47.40;;;;;;5202530;28;20299;-55
2022/06/04 10:31:58;;;;;;;2.40;2.10;;;22.60;47.50;;;;;;5199997;28;20536;-56
2022/06/04 10:35:16;;;;;;;1.37;1.37;;;22.60;47.00;;;;;;5202524;28;20442;-55
2022/06/04 10:38:09;;;;;;;1.80;1.70;;;22.80;47.00;;;;;;5154517;28;20450;-56
2022/06/04 10:41:00;;;;;;;2.50;1.57;;;22.90;46.20;;;;;;5143960;28;20420;-57
2022/06/04 10:44:05;;;;;;;1.43;1.33;;;22.90;46.30;;;;;;5197759;28;20431;-56
2022/06/04 10:46:59;;;;;;;1.83;1.73;;;22.90;46.50;;;;;;5199234;28;20507;-56
2022/06/04 10:49:58;;;;;;;4.97;1.60;;;23.10;46.60;;;;;;5194960;28;20881;-56
2022/06/04 10:52:43;;;;;;;1.77;1.73;;;23.40;45.80;;;;;;5207585;28;20423;-57
2022/06/04 10:55:29;;;;;;;2.17;2.07;;;23.50;45.60;;;;;;5201600;28;20429;-56
2022/06/04 10:58:24;;;;;;;1.50;1.50;;;23.70;45.90;;;;;;5207694;28;20458;-57
2022/06/04 11:01:06;;;;;;;1.20;1.20;;;23.90;44.90;;;;;;5204484;28;20430;-56
2022/06/04 11:04:00;;;;;;;5.13;1.63;;;24.00;44.70;;;;;;5204092;28;20759;-55
2022/06/04 11:06:42;;;;;;;2.67;2.13;;;23.90;44.60;;;;;;5204858;28;20965;-56
2022/06/04 11:09:17;;;;;;;1.57;1.57;;;24.00;45.10;;;;;;5197443;28;20438;-55
2022/06/04 11:12:02;;;;;;;1.77;1.63;;;24.10;44.30;;;;;;5202998;28;20581;-55
2022/06/04 11:14:55;;;;;;;2.70;1.60;;;24.10;44.20;;;;;;5201191;28;20800;-57
2022/06/04 11:17:46;;;;;;;1.93;1.83;;;24.20;43.90;;;;;;5190927;28;20439;-56
2022/06/04 11:20:25;;;;;;;1.10;1.10;;;24.30;44.10;;;;;;5200107;28;20517;-56
2022/06/04 11:23:17;;;;;;;1.63;1.50;;;24.60;43.80;;;;;;5194135;28;20414;-57
2022/06/04 11:25:52;;;;;;;1.60;1.60;;;24.60;42.60;;;;;;5195784;28;20483;-59
2022/06/04 11:28:26;;;;;;;1.70;1.60;;;24.70;42.70;;;;;;5199308;28;20429;-56
2022/06/04 11:31:13;;;;;;;2.40;1.70;;;24.70;42.50;;;;;;5200270;28;20469;-55
2022/06/04 11:34:04;;;;;;;3.20;1.47;;;24.60;42.50;;;;;;5196946;28;20449;-58
2022/06/04 11:36:40;;;;;;;2.20;2.10;;;24.70;42.80;;;;;;5195293;28;20541;-55
2022/06/04 11:39:28;;;;;;;2.90;1.67;;;24.90;42.70;;;;;;5194865;28;20438;-58
2022/06/04 11:42:05;;;;;;;1.77;1.70;;;24.90;42.20;;;;;;5189901;28;20437;-56
2022/06/04 11:45:13;;;;;;;1.53;1.43;;;24.70;42.30;;;;;;5197802;28;20430;-55
2022/06/04 11:48:03;;;;;;;3.03;1.90;;;24.40;42.90;;;;;;5197140;28;20489;-57
2022/06/04 11:50:57;;;;;;;3.23;1.50;;;24.30;43.10;;;;;;5204059;28;20468;-58
2022/06/04 11:53:44;;;;;;;2.03;1.90;;;24.50;43.50;;;;;;5201779;28;20499;-56
2022/06/04 11:56:37;;;;;;;1.70;1.60;;;24.60;43.10;;;;;;5197609;28;20431;-56
2022/06/04 11:59:11;;;;;;;1.50;1.50;;;24.80;42.40;;;;;;5199701;28;20824;-57
2022/06/04 12:01:58;;;;;;;2.20;2.00;;;25.00;43.10;;;;;;5207224;28;20922;-57
2022/06/04 12:04:38;;;;;;;1.80;1.70;;;25.30;43.30;;;;;;5204036;28;20437;-56
2022/06/04 12:07:39;;;;;;;7.33;1.73;;;25.40;43.00;;;;;;5203206;28;20866;-56
2022/06/04 12:10:22;;;;;;;3.70;1.47;;;25.20;42.60;;;;;;5198000;28;20980;-57
2022/06/04 12:13:11;;;;;;;2.00;1.47;;;25.00;43.20;;;;;;5206433;28;20509;-57
2022/06/04 12:15:45;;;;;;;1.50;1.40;;;25.20;43.50;;;;;;5194146;28;20439;-57
2022/06/04 12:18:19;;;;;;;5.43;1.90;;;25.60;43.50;;;;;;5199978;28;20458;-56
2022/06/04 12:26:44;;;;;;;2.00;1.90;;;25.80;43.30;;;;;;5199518;28;20449;-56
2022/06/04 12:29:32;;;;;;;1.90;1.33;;;25.60;43.50;;;;;;5198583;28;20437;-57
2022/06/04 12:32:31;;;;;;;2.00;1.90;;;25.50;43.70;;;;;;5204479;28;20911;-57
2022/06/04 12:35:11;;;;;;;4.00;1.70;;;25.50;44.00;;;;;;5194063;28;20775;-57
2022/06/04 12:37:47;;;;;;;1.83;1.73;;;25.50;43.90;;;;;;5188831;28;20438;-55
2022/06/04 12:40:23;;;;;;;1.90;1.80;;;25.40;44.20;;;;;;5199775;28;20434;-57
2022/06/04 12:43:01;;;;;;;1.80;1.73;;;25.40;44.60;;;;;;5204691;28;20447;-57
2022/06/04 12:45:45;;;;;;;1.47;1.47;;;25.40;44.80;;;;;;5203395;28;20952;-56
2022/06/04 12:48:35;;;;;;;1.43;1.30;;;25.40;45.00;;;;;;5203396;28;20470;-55
2022/06/04 12:51:21;;;;;;;1.60;1.60;;;25.60;45.20;;;;;;5198470;28;20870;-56
2022/06/04 12:54:00;;;;;;;2.13;1.73;;;25.60;45.00;;;;;;5199576;28;20516;-56
2022/06/04 12:56:38;;;;;;;2.40;1.97;;;25.50;45.20;;;;;;5203853;28;20939;-57
2022/06/04 12:59:40;;;;;;;1.50;1.40;;;25.40;45.20;;;;;;5208982;28;20421;-57
2022/06/04 13:02:33;;;;;;;2.00;2.00;;;25.30;45.60;;;;;;5205838;28;20476;-57
2022/06/04 13:05:12;;;;;;;1.53;1.53;;;25.20;45.30;;;;;;5205380;28;20414;-57
2022/06/04 13:08:20;;;;;;;2.00;1.90;;;25.20;45.70;;;;;;5200707;28;20503;-57
2022/06/04 13:10:50;;;;;;;2.33;1.70;;;25.30;44.90;;;;;;5195127;28;20465;-57
2022/06/04 13:13:48;;;;;;;1.63;1.63;;;25.20;44.60;;;;;;5203694;28;20533;-56
2022/06/04 13:16:24;;;;;;;2.40;1.50;;;25.20;44.30;;;;;;5201678;28;20244;-58
2022/06/04 13:19:10;;;;;;;1.97;1.90;;;25.30;44.30;;;;;;5205417;28;20425;-57
2022/06/04 13:21:45;;;;;;;1.00;1.00;;;25.30;43.70;;;;;;5204478;28;20426;-57
2022/06/04 13:24:21;;;;;;;1.77;1.67;;;25.10;43.60;;;;;;5203086;28;20419;-56
2022/06/04 13:27:08;;;;;;;1.50;1.40;;;25.20;43.60;;;;;;5200073;28;20535;-56
2022/06/04 13:29:40;;;;;;;1.43;1.33;;;25.30;43.40;;;;;;5207230;28;20468;-57
2022/06/04 13:32:17;;;;;;;1.90;1.80;;;25.40;42.30;;;;;;5204117;28;20422;-56
2022/06/04 13:34:49;;;;;;;2.10;2.00;;;25.50;42.70;;;;;;5198478;28;20446;-56
2022/06/04 13:37:22;;;;;;;2.10;1.90;;;25.30;42.00;;;;;;5208168;28;20584;-56
2022/06/04 13:39:54;;;;;;;2.07;1.37;;;24.90;42.50;;;;;;5205759;28;20500;-57
2022/06/04 13:42:36;;;;;;;2.93;1.30;;;24.80;43.20;;;;;;5197532;28;20524;-57
2022/06/04 13:45:09;;;;;;;1.70;1.70;;;24.90;43.70;;;;;;5204777;28;20473;-57
2022/06/04 13:47:55;;;;;;;2.70;2.00;;;25.20;43.30;;;;;;5202984;28;20471;-56
2022/06/04 13:50:29;;;;;;;4.23;1.67;;;25.50;43.00;;;;;;5204466;28;20981;-58
2022/06/04 13:53:23;;;;;;;1.60;1.50;;;25.60;43.00;;;;;;5188165;28;20499;-57
2022/06/04 13:55:58;;;;;;;1.10;1.10;;;25.60;43.10;;;;;;5201829;28;20463;-56
2022/06/04 13:58:40;;;;;;;3.00;1.87;;;25.50;43.40;;;;;;5197435;28;20516;-56
2022/06/04 14:01:30;;;;;;;1.67;1.67;;;25.30;43.60;;;;;;5196364;28;20537;-57